Аэропорт: Сары-Арка. Караганда

ICAO: UAKK

METAR:
2019/05/26 14:00
UAKK 261400Z 02002MPS CAVOK 12/M04 Q1025 R05/0///70 NOSIG RMK QFE721/0961
METAR:
2019/05/26 12:18
TAF UAKK 261100Z 2612/2712 VRB02MPS 9999 SCT030 SCT100 TX18/2709Z TNM01/2623Z 
      TEMPO 2620/2624 5000 BR SCT011 
      BECMG 2703/2705 10005MPS